Time;durP1;ratioP1;P1;durP2;ratioP2;P2;SDS_P1;SDS_P2;PMS_P1;PMS_P2;Temp;Humidity;BMP_temperature;BMP_pressure;BME280_temperature;BME280_humidity;BME280_pressure;Samples;Min_cycle;Max_cycle;Signal;HPM_P1;HPM_P2
2022/03/29 00:01:13;;;;;;;29.23;8.03;;;;;;;8.38;33.07;100392.31;125699;1102;104373;-78
2022/03/29 00:03:44;;;;;;;21.90;7.60;;;;;;;8.35;32.94;100395.71;125279;1102;102075;-78
2022/03/29 00:06:18;;;;;;;22.33;8.00;;;;;;;8.31;33.13;100390.28;125745;1102;101986;-78
2022/03/29 00:08:52;;;;;;;21.17;7.77;;;;;;;8.24;33.74;100390.02;125723;1102;102252;-80
2022/03/29 00:11:24;;;;;;;22.23;7.60;;;;;;;8.21;33.67;100383.74;125530;1102;102246;-80
2022/03/29 00:13:55;;;;;;;19.73;7.80;;;;;;;8.19;33.25;100380.18;125423;1103;101808;-79
2022/03/29 00:20:30;;;;;;;20.50;8.47;;;;;;;8.06;33.38;100371.80;125296;1102;104445;-79
2022/03/29 00:23:06;;;;;;;25.37;7.90;;;;;;;8.05;33.54;100374.34;125222;1102;104354;-79
2022/03/29 00:25:42;;;;;;;22.87;7.97;;;;;;;8.02;33.88;100369.88;125230;1102;102642;-79
2022/03/29 00:28:15;;;;;;;25.43;7.97;;;;;;;7.97;33.92;100370.52;125352;1102;104252;-79
2022/03/29 00:30:49;;;;;;;22.70;8.83;;;;;;;7.91;33.68;100365.90;125540;1102;102462;-79
2022/03/29 00:33:23;;;;;;;27.70;8.43;;;;;;;7.84;34.17;100364.75;125338;1102;102955;-79
2022/03/29 00:35:59;;;;;;;25.37;8.40;;;;;;;7.82;34.26;100357.66;125065;1102;104275;-78
2022/03/29 00:38:30;;;;;;;23.77;8.70;;;;;;;7.80;33.85;100361.92;125160;1102;104290;-79
2022/03/29 00:41:07;;;;;;;22.03;9.17;;;;;;;7.72;34.67;100358.97;125261;1102;102301;-79
2022/03/29 00:43:40;;;;;;;24.97;8.87;;;;;;;7.67;34.46;100344.82;125545;1102;102247;-79
2022/03/29 00:46:13;;;;;;;24.53;8.40;;;;;;;7.66;34.56;100348.25;125986;1101;104178;-79
2022/03/29 00:48:46;;;;;;;21.03;8.53;;;;;;;7.64;34.27;100348.18;125156;1102;104089;-79
2022/03/29 00:51:18;;;;;;;24.33;8.10;;;;;;;7.63;34.25;100340.27;124972;1102;101977;-79
2022/03/29 00:53:52;;;;;;;24.87;9.33;;;;;;;7.61;34.23;100339.33;125172;1102;103085;-78
2022/03/29 00:56:26;;;;;;;26.10;9.40;;;;;;;7.58;34.37;100337.45;125457;1102;102316;-78
2022/03/29 00:58:57;;;;;;;19.90;7.80;;;;;;;7.56;34.76;100337.39;125001;1102;102656;-78
2022/03/29 01:01:27;;;;;;;21.37;8.13;;;;;;;7.54;34.49;100341.66;125030;1102;104179;-79
2022/03/29 01:04:04;;;;;;;22.63;8.63;;;;;;;7.50;34.92;100329.28;125036;1102;102186;-79
2022/03/29 01:06:37;;;;;;;28.10;9.13;;;;;;;7.46;34.92;100321.23;125031;1102;103255;-79
2022/03/29 01:09:06;;;;;;;25.23;8.50;;;;;;;7.45;34.77;100330.80;125156;1102;104242;-79
2022/03/29 01:11:40;;;;;;;27.27;9.03;;;;;;;7.41;34.87;100326.24;125807;1102;102807;-79
2022/03/29 01:14:12;;;;;;;22.50;8.20;;;;;;;7.40;34.71;100320.95;125771;1102;102096;-79
2022/03/29 01:19:36;;;;;;;25.93;8.43;;;;;;;7.31;34.81;100311.89;125386;1102;104182;-78
2022/03/29 01:22:09;;;;;;;25.43;8.23;;;;;;;7.27;35.25;100307.34;124968;1102;103709;-78
2022/03/29 01:24:43;;;;;;;19.77;7.80;;;;;;;7.29;35.15;100310.02;124896;1103;102901;-78
2022/03/29 01:27:15;;;;;;;24.45;8.03;;;;;;;7.26;34.75;100305.58;125177;1102;102416;-78
2022/03/29 01:29:46;;;;;;;22.40;7.90;;;;;;;7.24;34.94;100301.98;126791;1101;103218;-78
2022/03/29 01:32:17;;;;;;;24.43;7.80;;;;;;;7.20;35.10;100300.95;125143;1102;104227;-78
2022/03/29 01:34:51;;;;;;;22.60;7.63;;;;;;;7.19;35.00;100303.49;125950;1102;102029;-78
2022/03/29 01:37:21;;;;;;;25.27;8.43;;;;;;;7.18;34.77;100302.61;124975;1102;104188;-78
2022/03/29 01:39:52;;;;;;;19.77;7.20;;;;;;;7.13;35.15;100309.31;125039;1102;102316;-78
2022/03/29 01:42:25;;;;;;;20.70;7.87;;;;;;;7.06;35.49;100302.05;125225;1102;104172;-78
2022/03/29 01:44:56;;;;;;;22.60;7.90;;;;;;;7.03;35.57;100296.68;125126;1102;104360;-78
2022/03/29 01:47:29;;;;;;;23.80;8.37;;;;;;;7.03;35.45;100291.47;125333;1102;102265;-78
2022/03/29 01:50:01;;;;;;;22.22;7.17;;;;;;;7.04;35.47;100292.34;125283;1102;104248;-78
2022/03/29 01:52:45;;;;;;;20.27;7.53;;;;;;;7.05;35.78;100289.81;126112;1101;102778;-78
2022/03/29 01:55:19;;;;;;;22.83;7.70;;;;;;;6.99;35.31;100290.41;125195;1105;102001;-78
2022/03/29 01:57:53;;;;;;;26.80;8.13;;;;;;;6.93;35.80;100297.94;125936;1101;102130;-79
2022/03/29 02:00:34;;;;;;;26.60;8.25;;;;;;;6.90;35.71;100296.91;125391;1102;103168;-78
2022/03/29 02:03:05;;;;;;;23.80;7.27;;;;;;;6.89;35.49;100292.51;125530;1102;101916;-78
2022/03/29 02:05:37;;;;;;;25.20;8.70;;;;;;;6.87;35.96;100281.12;126110;1102;102154;-77
2022/03/29 02:08:10;;;;;;;22.57;8.23;;;;;;;6.81;36.62;100280.02;126075;1102;104172;-78
2022/03/29 02:10:43;;;;;;;21.00;9.03;;;;;;;6.74;36.49;100277.93;125138;1102;104239;-78
2022/03/29 02:13:14;;;;;;;28.03;9.37;;;;;;;6.70;36.02;100275.11;125315;1102;101836;-78
2022/03/29 02:15:49;;;;;;;25.13;9.70;;;;;;;6.66;36.15;100277.56;125250;1102;102857;-78
2022/03/29 02:18:20;;;;;;;25.67;9.97;;;;;;;6.64;36.25;100270.52;125000;1102;104223;-78
2022/03/29 02:20:54;;;;;;;26.20;9.60;;;;;;;6.65;36.29;100269.67;125078;1102;103187;-78
2022/03/29 02:23:25;;;;;;;28.47;10.53;;;;;;;6.63;36.56;100261.77;125013;1102;102168;-78
2022/03/29 02:25:59;;;;;;;25.53;9.80;;;;;;;6.60;36.86;100258.14;125242;1102;104935;-78
2022/03/29 02:28:34;;;;;;;30.50;11.47;;;;;;;6.58;36.73;100257.18;125596;1102;102485;-78
2022/03/29 02:31:05;;;;;;;29.05;10.00;;;;;;;6.57;35.95;100252.77;124942;1102;103157;-78
2022/03/29 02:33:36;;;;;;;33.67;11.67;;;;;;;6.54;36.93;100250.91;125168;1102;102219;-78
2022/03/29 02:36:13;;;;;;;32.77;10.37;;;;;;;6.52;36.47;100249.06;125067;1102;102775;-78
2022/03/29 02:38:43;;;;;;;27.87;9.83;;;;;;;6.48;36.75;100250.61;125588;1102;104274;-78
2022/03/29 02:41:15;;;;;;;26.17;10.03;;;;;;;6.48;36.86;100243.70;124996;1102;103197;-78
2022/03/29 02:43:48;;;;;;;33.10;10.13;;;;;;;6.47;36.94;100247.13;125086;1102;104182;-78
2022/03/29 02:46:20;;;;;;;30.87;10.77;;;;;;;6.45;36.71;100248.77;125578;1102;104259;-78
2022/03/29 02:48:51;;;;;;;27.10;9.33;;;;;;;6.44;36.79;100246.97;124877;1102;104297;-78
2022/03/29 02:51:23;;;;;;;27.70;9.70;;;;;;;6.41;36.97;100249.43;125533;1105;102102;-78
2022/03/29 02:53:56;;;;;;;31.03;9.90;;;;;;;6.38;37.08;100246.67;125007;1102;104255;-78
2022/03/29 02:56:28;;;;;;;26.60;9.03;;;;;;;6.37;36.83;100242.27;124808;1101;102199;-79
2022/03/29 02:58:59;;;;;;;25.80;9.40;;;;;;;6.37;36.93;100236.17;124917;1102;104260;-79
2022/03/29 03:01:30;;;;;;;25.73;9.20;;;;;;;6.36;37.06;100237.90;124877;1102;103271;-80
2022/03/29 03:04:00;;;;;;;33.33;10.20;;;;;;;6.33;37.15;100235.14;124886;1105;104171;-79
2022/03/29 03:06:33;;;;;;;26.03;9.63;;;;;;;6.30;37.10;100235.88;125134;1102;102866;-80
2022/03/29 03:09:04;;;;;;;19.93;9.13;;;;;;;6.27;37.45;100232.24;125070;1102;104246;-79
2022/03/29 03:11:39;;;;;;;24.37;10.10;;;;;;;6.24;37.07;100238.19;125446;1102;104326;-79
2022/03/29 03:14:11;;;;;;;26.97;10.40;;;;;;;6.25;37.54;100246.91;125845;1102;102583;-79
2022/03/29 03:16:42;;;;;;;26.17;10.27;;;;;;;6.23;37.23;100246.84;126036;1102;102341;-79
2022/03/29 03:19:13;;;;;;;23.80;10.07;;;;;;;6.24;37.27;100239.91;125702;1102;103801;-79
2022/03/29 03:21:42;;;;;;;32.97;11.10;;;;;;;6.25;37.76;100239.09;125925;1102;104114;-79
2022/03/29 03:24:13;;;;;;;30.30;10.80;;;;;;;6.22;37.13;100233.73;125935;1103;101669;-79
2022/03/29 03:26:43;;;;;;;29.73;10.60;;;;;;;6.21;37.29;100235.43;125661;1102;104348;-79
2022/03/29 03:29:13;;;;;;;29.65;11.10;;;;;;;6.19;37.32;100230.98;125496;1102;102185;-79
2022/03/29 03:31:43;;;;;;;35.83;12.00;;;;;;;6.13;37.44;100228.95;125359;1102;104277;-79
2022/03/29 03:34:14;;;;;;;26.97;10.87;;;;;;;6.10;37.62;100220.99;125230;1102;101786;-79
2022/03/29 03:36:44;;;;;;;28.07;10.80;;;;;;;6.09;37.91;100221.80;125083;1102;102775;-79
2022/03/29 03:39:14;;;;;;;34.23;11.47;;;;;;;6.07;37.97;100226.05;125314;1102;104667;-79
2022/03/29 03:41:47;;;;;;;27.57;9.87;;;;;;;6.03;37.77;100221.50;125126;1102;101837;-79
2022/03/29 03:44:17;;;;;;;36.88;10.82;;;;;;;6.01;37.80;100229.23;125047;1102;104262;-79
2022/03/29 03:46:47;;;;;;;37.20;11.50;;;;;;;5.97;37.78;100229.92;124993;1102;102554;-80
2022/03/29 03:49:17;;;;;;;34.90;10.60;;;;;;;5.95;38.25;100226.29;125119;1102;104188;-80
2022/03/29 03:51:47;;;;;;;32.80;11.10;;;;;;;5.92;38.34;100224.45;125129;1102;104639;-79
2022/03/29 03:54:17;;;;;;;46.13;11.90;;;;;;;5.90;37.97;100225.17;125063;1102;102145;-79
2022/03/29 03:56:48;;;;;;;35.07;11.20;;;;;;;5.91;38.45;100221.77;125083;1102;102811;-79
2022/03/29 03:59:18;;;;;;;39.57;10.77;;;;;;;5.92;38.01;100226.14;125186;1102;102799;-79
2022/03/29 04:01:48;;;;;;;34.20;10.87;;;;;;;5.88;38.45;100225.10;125136;1102;104194;-79
2022/03/29 04:04:18;;;;;;;36.73;11.30;;;;;;;5.83;38.55;100226.59;125121;1102;104173;-79
2022/03/29 04:06:47;;;;;;;37.47;11.13;;;;;;;5.85;38.12;100224.06;125173;1102;101777;-79
2022/03/29 04:09:21;;;;;;;42.00;11.93;;;;;;;5.86;38.42;100229.34;124470;1102;104297;-79
2022/03/29 04:11:49;;;;;;;;;;;;;;;5.88;39.41;100230.31;125896;1101;102254;-80
2022/03/29 04:14:24;;;;;;;35.97;11.83;;;;;;;5.86;38.62;100223.22;126266;1102;102085;-81
2022/03/29 04:16:57;;;;;;;39.00;11.55;;;;;;;5.84;38.87;100214.45;125061;1102;102842;-82
2022/03/29 04:19:26;;;;;;;32.57;12.13;;;;;;;5.83;39.08;100216.17;124888;1103;104246;-81
2022/03/29 04:21:58;;;;;;;42.40;12.43;;;;;;;5.82;38.43;100221.30;125272;1102;104175;-81
2022/03/29 04:24:28;;;;;;;46.73;14.33;;;;;;;5.82;39.28;100221.30;124934;1105;102296;-81
2022/03/29 04:27:13;;;;;;;45.30;14.90;;;;;;;5.84;38.80;100219.66;125174;1101;102491;-82
2022/03/29 04:29:44;;;;;;;47.93;16.03;;;;;;;5.90;39.23;100222.58;125473;1102;102349;-82
2022/03/29 04:32:17;;;;;;;43.03;16.33;;;;;;;5.95;38.72;100228.89;125267;1101;104190;-81
2022/03/29 04:35:00;;;;;;;43.13;17.00;;;;;;;5.93;39.26;100217.52;125701;1105;102304;-81
2022/03/29 04:37:34;;;;;;;47.17;17.43;;;;;;;5.93;39.12;100226.22;125750;1105;102188;-81
2022/03/29 04:40:15;;;;;;;49.27;16.93;;;;;;;5.97;40.00;100221.19;125531;1105;104316;-81
2022/03/29 04:42:55;;;;;;;46.50;19.17;;;;;;;6.03;39.24;100217.20;125191;1105;102801;-81
2022/03/29 04:45:37;;;;;;;48.30;19.23;;;;;;;6.08;39.45;100220.91;125453;1105;103238;-81
2022/03/29 04:48:20;;;;;;;61.63;21.63;;;;;;;6.11;39.38;100221.06;125444;1105;103605;-81
2022/03/29 04:50:52;;;;;;;56.70;20.67;;;;;;;6.17;39.15;100224.78;125353;1105;102336;-80
2022/03/29 04:53:22;;;;;;;52.13;19.60;;;;;;;6.20;39.23;100230.14;124916;1105;104434;-80
2022/03/29 04:55:54;;;;;;;52.20;19.97;;;;;;;6.22;39.73;100229.41;124987;1105;104377;-80
2022/03/29 04:58:25;;;;;;;47.93;19.57;;;;;;;6.25;39.43;100229.56;124858;1105;102367;-81
2022/03/29 05:00:55;;;;;;;49.90;20.87;;;;;;;6.27;39.98;100227.03;124904;1105;104188;-80
2022/03/29 05:03:27;;;;;;;54.33;21.40;;;;;;;6.29;39.79;100221.09;124888;1105;104373;-80
2022/03/29 05:06:02;;;;;;;45.83;20.30;;;;;;;6.30;39.60;100221.97;125025;1105;104124;-80
2022/03/29 05:08:32;;;;;;;53.00;20.93;;;;;;;6.32;40.16;100228.13;125080;1102;102794;-80
2022/03/29 05:11:06;;;;;;;60.53;22.83;;;;;;;6.34;39.87;100223.87;125044;1102;101879;-80
2022/03/29 05:13:49;;;;;;;58.28;24.80;;;;;;;6.41;40.10;100231.19;125090;1102;103072;-79
2022/03/29 05:16:19;;;;;;;54.15;21.65;;;;;;;6.51;39.90;100226.41;125150;1102;102743;-79
2022/03/29 05:18:51;;;;;;;47.87;21.07;;;;;;;6.59;39.92;100227.66;125159;1102;102797;-80
2022/03/29 05:21:21;;;;;;;61.13;24.57;;;;;;;6.66;40.25;100221.92;125071;1102;102860;-80
2022/03/29 05:23:52;;;;;;;70.00;25.83;;;;;;;6.75;40.15;100217.14;125178;1102;104313;-80
2022/03/29 05:26:30;;;;;;;66.87;27.57;;;;;;;6.83;40.14;100217.50;125387;1102;102277;-81
2022/03/29 05:29:21;;;;;;;71.33;27.73;;;;;;;6.92;40.51;100214.40;125111;1105;103290;-82
2022/03/29 05:31:56;;;;;;;67.20;28.77;;;;;;;7.00;40.60;100213.05;125218;1102;102591;-80
2022/03/29 05:34:31;;;;;;;65.23;27.10;;;;;;;7.10;40.50;100212.63;125415;1102;104274;-82
2022/03/29 05:37:03;;;;;;;62.30;27.43;;;;;;;7.20;40.65;100206.13;125313;1102;103638;-82
2022/03/29 05:39:33;;;;;;;59.60;24.97;;;;;;;7.33;40.43;100203.22;125599;1102;104337;-81
2022/03/29 05:42:07;;;;;;;56.83;26.87;;;;;;;7.48;40.72;100195.17;125043;1102;104216;-80
2022/03/29 05:44:40;;;;;;;61.68;25.57;;;;;;;7.62;40.70;100197.46;124617;1102;104172;-81
2022/03/29 05:50:13;;;;;;;56.60;25.93;;;;;;;7.89;40.89;100182.07;125267;1102;101952;-82
2022/03/29 05:53:11;;;;;;;55.20;23.63;;;;;;;8.02;40.37;100186.07;125487;1102;118827;-84
2022/03/29 05:55:51;;;;;;;60.33;24.70;;;;;;;8.11;40.47;100181.22;125427;1102;102223;-83
2022/03/29 05:58:23;;;;;;;54.07;23.63;;;;;;;8.20;40.41;100176.37;125108;1102;104217;-83
2022/03/29 06:00:54;;;;;;;58.13;24.27;;;;;;;8.26;40.26;100173.12;125138;1102;104294;-84
2022/03/29 06:03:33;;;;;;;57.00;23.70;;;;;;;8.33;40.16;100176.86;125285;1102;104209;-83
2022/03/29 06:06:08;;;;;;;55.93;23.97;;;;;;;8.43;40.38;100173.75;125731;1093;102694;-82
2022/03/29 06:08:54;;;;;;;65.67;24.73;;;;;;;8.60;40.18;100177.97;125292;1102;104293;-84
2022/03/29 06:11:47;;;;;;;54.90;23.83;;;;;;;8.75;40.38;100179.37;125568;1102;104241;-85
2022/03/29 06:14:48;;;;;;;54.90;23.37;;;;;;;8.80;40.30;100175.20;125606;1102;104236;-83
2022/03/29 06:17:42;;;;;;;56.57;24.30;;;;;;;8.91;39.92;100173.90;125225;1105;104184;-82
2022/03/29 06:20:35;;;;;;;59.40;25.20;;;;;;;9.05;39.99;100169.14;125702;1105;104417;-82
2022/03/29 06:23:07;;;;;;;63.13;24.50;;;;;;;9.22;39.79;100164.52;125213;1105;104335;-83
2022/03/29 06:25:43;;;;;;;59.07;24.23;;;;;;;9.35;40.17;100164.12;125250;1105;102448;-84
2022/03/29 06:28:17;;;;;;;60.90;25.87;;;;;;;9.47;40.08;100147.05;125053;1105;102175;-81
2022/03/29 06:31:03;;;;;;;59.63;24.63;;;;;;;9.57;39.97;100143.02;124993;1105;104482;-84
2022/03/29 06:33:50;;;;;;;56.00;24.70;;;;;;;9.75;39.98;100150.61;124777;1105;119798;-84
2022/03/29 06:36:49;;;;;;;58.60;25.13;;;;;;;9.87;39.96;100146.66;125217;1105;102463;-84
2022/03/29 06:39:26;;;;;;;63.30;25.67;;;;;;;9.99;39.74;100135.70;124935;1109;104242;-82
2022/03/29 06:42:02;;;;;;;61.43;26.67;;;;;;;10.09;39.33;100136.88;124630;1109;104325;-82
2022/03/29 06:44:39;;;;;;;60.43;25.40;;;;;;;10.20;39.30;100134.59;124745;1109;102952;-80
2022/03/29 06:47:11;;;;;;;58.17;26.73;;;;;;;10.33;39.07;100125.39;124827;1109;102240;-82
2022/03/29 06:49:56;;;;;;;61.07;28.13;;;;;;;10.48;39.12;100130.23;125364;1105;102344;-81
2022/03/29 06:52:42;;;;;;;57.57;26.60;;;;;;;10.66;39.26;100125.53;125357;1105;103379;-82
2022/03/29 06:55:21;;;;;;;63.83;26.97;;;;;;;10.73;39.17;100127.47;124885;1105;102583;-83
2022/03/29 06:58:26;;;;;;;66.30;28.77;;;;;;;10.81;39.00;100130.31;125474;1105;102013;-83
2022/03/29 07:04:26;;;;;;;55.28;27.75;;;;;;;11.20;39.30;100136.65;125163;1105;103284;-83
2022/03/29 07:07:23;;;;;;;63.67;29.10;;;;;;;11.36;38.82;100127.44;125331;1105;102670;-83
2022/03/29 07:13:08;;;;;;;63.27;30.40;;;;;;;11.72;38.44;100135.40;124987;1105;104223;-83
2022/03/29 07:15:41;;;;;;;70.63;30.70;;;;;;;11.97;38.44;100130.78;124985;1105;103155;-82
2022/03/29 07:18:13;;;;;;;72.35;27.90;;;;;;;12.16;38.21;100125.09;124945;1105;102107;-81
2022/03/29 07:20:52;;;;;;;61.53;27.57;;;;;;;12.30;37.86;100122.78;125295;1105;102209;-82
2022/03/29 07:23:38;;;;;;;74.23;30.77;;;;;;;12.40;37.31;100122.14;125490;1105;104424;-82
2022/03/29 07:26:19;;;;;;;61.40;28.15;;;;;;;12.62;37.36;100116.44;125055;1104;104303;-82
2022/03/29 07:28:53;;;;;;;63.23;27.13;;;;;;;12.78;37.32;100118.55;125235;1105;102914;-81
2022/03/29 07:31:30;;;;;;;57.27;26.83;;;;;;;12.86;36.82;100105.54;124911;1105;103586;-81
2022/03/29 07:34:08;;;;;;;57.53;27.80;;;;;;;12.97;37.00;100098.73;125024;1105;102851;-81
2022/03/29 07:36:47;;;;;;;60.00;25.13;;;;;;;13.09;36.98;100087.55;124908;1105;102803;-80
2022/03/29 07:39:21;;;;;;;53.13;25.47;;;;;;;13.19;36.78;100089.48;125144;1105;104182;-80
2022/03/29 07:42:16;;;;;;;57.87;24.23;;;;;;;13.33;36.96;100092.41;125045;1102;104314;-82
2022/03/29 07:44:50;;;;;;;51.60;23.57;;;;;;;13.45;36.25;100091.75;125255;1102;104341;-81
2022/03/29 07:47:29;;;;;;;44.67;20.10;;;;;;;13.56;35.71;100090.17;125197;1102;104159;-81
2022/03/29 07:50:19;;;;;;;53.00;21.00;;;;;;;13.68;36.10;100089.50;125121;1102;104169;-81
2022/03/29 07:52:54;;;;;;;43.17;19.43;;;;;;;13.80;35.48;100088.80;125349;1102;102913;-80
2022/03/29 07:55:27;;;;;;;49.17;18.80;;;;;;;13.89;35.16;100086.30;125188;1102;119806;-80
2022/03/29 07:58:19;;;;;;;39.50;17.83;;;;;;;13.99;35.29;100085.59;125102;1102;104316;-80
2022/03/29 08:00:51;;;;;;;40.63;18.27;;;;;;;14.03;35.22;100087.39;125110;1102;103562;-80
2022/03/29 08:03:32;;;;;;;37.10;16.17;;;;;;;14.10;35.27;100071.66;124868;1102;102898;-80
2022/03/29 08:06:08;;;;;;;40.10;16.73;;;;;;;14.15;34.48;100075.27;124985;1101;104242;-82
2022/03/29 08:08:43;;;;;;;39.23;16.67;;;;;;;14.26;34.96;100073.66;124853;1102;104242;-81
2022/03/29 08:11:16;;;;;;;38.30;16.87;;;;;;;14.28;34.14;100069.28;124626;1102;101980;-81
2022/03/29 08:13:50;;;;;;;36.85;16.07;;;;;;;14.35;34.29;100070.24;125194;1102;104303;-83
2022/03/29 08:16:34;;;;;;;;;;;;;;;;;;;;;
2022/03/29 08:19:32;;;;;;;38.63;16.00;;;;;;;14.48;33.91;100060.75;125437;1102;104220;-82
2022/03/29 08:22:12;;;;;;;40.40;17.77;;;;;;;14.64;33.42;100057.45;124995;1102;102673;-81
2022/03/29 08:24:50;;;;;;;41.90;17.13;;;;;;;14.81;34.23;100049.73;124914;1103;102222;-79
2022/03/29 08:27:31;;;;;;;36.80;16.77;;;;;;;15.02;34.11;100046.45;125301;1102;104230;-82
2022/03/29 08:30:15;;;;;;;44.17;17.27;;;;;;;15.24;33.59;100034.33;125181;1102;104182;-82
2022/03/29 08:32:48;;;;;;;43.57;16.13;;;;;;;15.57;33.84;100045.18;125281;1102;104156;-81
2022/03/29 08:35:25;;;;;;;37.50;15.50;;;;;;;15.81;32.81;100044.50;125101;1102;104293;-81
2022/03/29 08:38:50;;;;;;;28.50;13.53;;;;;;;16.10;32.94;100035.88;124960;1102;104319;-81
2022/03/29 08:41:32;;;;;;;29.53;12.57;;;;;;;16.43;32.33;100031.62;124860;1105;102298;-78
2022/03/29 08:45:02;;;;;;;29.77;13.03;;;;;;;16.75;32.34;100031.75;124905;1104;104236;-79
2022/03/29 08:47:42;;;;;;;26.97;12.40;;;;;;;17.04;31.99;100023.00;124798;1106;104204;-81
2022/03/29 08:50:35;;;;;;;31.13;12.33;;;;;;;17.23;31.37;100013.30;124543;1105;104245;-81
2022/03/29 08:53:10;;;;;;;29.53;12.00;;;;;;;17.34;31.80;100005.34;124895;1105;102050;-81
2022/03/29 08:55:58;;;;;;;24.07;11.40;;;;;;;17.45;30.99;100006.22;124458;1105;104456;-81
2022/03/29 08:58:35;;;;;;;30.67;12.37;;;;;;;17.63;31.32;99992.07;125078;1105;104226;-80
2022/03/29 09:01:27;;;;;;;26.57;11.13;;;;;;;17.74;30.97;99990.27;125259;1105;102717;-81
2022/03/29 09:04:18;;;;;;;28.05;11.95;;;;;;;17.79;30.97;99987.61;125531;1102;103632;-81
2022/03/29 09:07:17;;;;;;;24.30;11.40;;;;;;;17.84;30.68;99991.16;125218;1102;108272;-81
2022/03/29 09:13:14;;;;;;;22.77;10.53;;;;;;;17.87;30.31;99979.64;125252;1102;103299;-83
2022/03/29 09:16:07;;;;;;;23.47;9.77;;;;;;;17.93;29.75;99972.56;125210;1102;102063;-80
2022/03/29 09:18:59;;;;;;;24.50;10.27;;;;;;;18.01;29.83;99971.67;125166;1102;104220;-81
2022/03/29 09:21:44;;;;;;;24.23;10.77;;;;;;;18.06;29.67;99968.13;125266;1102;104290;-82
2022/03/29 09:24:20;;;;;;;23.00;9.47;;;;;;;18.09;29.04;99959.25;125502;1102;102140;-81
2022/03/29 09:27:15;;;;;;;23.45;10.28;;;;;;;18.11;29.25;99961.02;125289;1102;102333;-83
2022/03/29 09:30:18;;;;;;;22.93;9.47;;;;;;;18.12;29.29;99954.83;125032;1102;104169;-82
2022/03/29 09:33:16;;;;;;;29.63;11.07;;;;;;;18.14;29.15;99947.73;125228;1102;102283;-80
2022/03/29 09:36:14;;;;;;;;;;;;;;;;;;;;;
2022/03/29 09:38:47;;;;;;;24.70;11.93;;;;;;;18.20;29.02;99946.84;124743;1102;102447;-80
2022/03/29 09:41:54;;;;;;;31.93;13.40;;;;;;;18.12;28.54;99943.30;124973;1102;102743;-82
2022/03/29 09:44:42;;;;;;;30.73;13.27;;;;;;;18.18;28.57;99932.66;124432;1105;102860;-80
2022/03/29 09:47:20;;;;;;;24.47;11.47;;;;;;;18.26;28.56;99930.88;125120;1105;102167;-81
2022/03/29 09:50:02;;;;;;;28.83;12.00;;;;;;;18.33;28.11;99935.25;124226;1105;102224;-79
2022/03/29 09:52:47;;;;;;;26.40;11.47;;;;;;;18.42;27.69;99917.52;124280;1106;102833;-80
2022/03/29 09:55:25;;;;;;;27.17;12.53;;;;;;;18.51;27.82;99920.09;125228;1105;102266;-82
2022/03/29 09:58:23;;;;;;;28.03;13.23;;;;;;;18.51;27.70;99917.44;125376;1105;104233;-82
2022/03/29 10:01:27;;;;;;;35.50;12.23;;;;;;;18.58;27.42;99915.64;124860;1105;104360;-79
2022/03/29 10:04:13;;;;;;;27.07;11.70;;;;;;;18.67;27.82;99913.80;124897;1105;104429;-79
2022/03/29 10:06:48;;;;;;;25.70;11.80;;;;;;;18.79;27.56;99904.87;124225;1105;104160;-79
2022/03/29 10:09:26;;;;;;;27.87;11.30;;;;;;;18.93;27.21;99904.80;125001;1105;110932;-80
2022/03/29 10:11:58;;;;;;;18.33;8.43;;;;;;;19.07;27.07;99901.13;124598;1105;104408;-78
2022/03/29 10:14:29;;;;;;;22.13;8.57;;;;;;;19.16;27.17;99899.25;124959;1106;104233;-80
2022/03/29 10:17:11;;;;;;;20.17;8.07;;;;;;;19.29;27.06;99894.73;125047;1105;104443;-83
2022/03/29 10:19:42;;;;;;;20.30;8.20;;;;;;;19.39;26.42;99892.84;125135;1105;104217;-83
2022/03/29 10:22:27;;;;;;;20.23;8.50;;;;;;;19.47;26.60;99887.45;125385;1101;102404;-84
2022/03/29 10:25:07;;;;;;;18.80;8.50;;;;;;;19.55;26.66;99877.59;124550;1102;102311;-81
2022/03/29 10:27:39;;;;;;;18.50;8.00;;;;;;;19.62;26.44;99871.32;125168;1102;102311;-82
2022/03/29 10:30:36;;;;;;;21.93;8.77;;;;;;;19.68;26.45;99871.25;125274;1102;107828;-83
2022/03/29 10:33:34;;;;;;;18.83;8.80;;;;;;;19.72;25.65;99875.62;125336;1105;104179;-83
2022/03/29 10:36:20;;;;;;;18.77;8.03;;;;;;;19.78;25.79;99865.85;125154;1102;104366;-81
2022/03/29 10:39:25;;;;;;;22.13;8.73;;;;;;;19.82;25.52;99854.25;125062;1102;102852;-80
2022/03/29 10:41:57;;;;;;;22.77;9.20;;;;;;;19.81;25.77;99849.84;124993;1102;104217;-80
2022/03/29 10:45:10;;;;;;;20.15;9.00;;;;;;;19.80;25.80;99848.94;124925;1102;102396;-79
2022/03/29 10:48:05;;;;;;;19.40;8.40;;;;;;;19.78;25.73;99842.77;124416;1102;104198;-81
2022/03/29 10:51:10;;;;;;;24.30;8.93;;;;;;;19.79;25.35;99833.89;125133;1102;111158;-83
2022/03/29 10:53:49;;;;;;;22.13;8.50;;;;;;;19.79;25.33;99828.56;125180;1102;104173;-80
2022/03/29 10:56:36;;;;;;;;;;;;;;;;;;;;;
2022/03/29 10:59:24;;;;;;;19.57;7.87;;;;;;;19.80;24.29;99816.13;125090;1102;103194;-80
2022/03/29 11:02:24;;;;;;;20.90;8.30;;;;;;;19.78;25.29;99812.61;124513;1101;104307;-79
2022/03/29 11:05:07;;;;;;;23.00;8.97;;;;;;;19.76;24.75;99799.30;124697;1102;102984;-80
2022/03/29 11:08:27;;;;;;;18.97;8.70;;;;;;;19.81;24.64;99796.60;125600;1102;104175;-81
2022/03/29 11:11:43;;;;;;;21.10;9.13;;;;;;;19.83;24.24;99789.47;125635;1102;117908;-79
2022/03/29 11:14:39;;;;;;;19.70;8.53;;;;;;;19.81;24.55;99784.16;125102;1102;104329;-80
2022/03/29 11:17:49;;;;;;;18.80;8.20;;;;;;;19.83;24.42;99771.70;125175;1102;104112;-79
2022/03/29 11:20:51;;;;;;;20.17;8.23;;;;;;;19.82;24.30;99756.66;125024;1102;102227;-80
2022/03/29 11:27:27;;;;;;;13.67;6.73;;;;;;;19.91;23.52;99756.52;125258;1102;104198;-80
2022/03/29 11:29:59;;;;;;;14.70;6.63;;;;;;;19.99;24.09;99751.09;125079;1102;104051;-79
2022/03/29 11:32:34;;;;;;;14.93;6.90;;;;;;;20.02;23.42;99743.02;124997;1102;102327;-78
2022/03/29 11:35:15;;;;;;;14.30;6.33;;;;;;;20.03;23.79;99744.79;125152;1102;104183;-78
2022/03/29 11:37:49;;;;;;;16.20;6.77;;;;;;;20.05;23.02;99742.98;125274;1102;102188;-79
2022/03/29 11:40:33;;;;;;;16.07;6.80;;;;;;;20.07;23.26;99730.54;124956;1102;104272;-76
2022/03/29 11:43:10;;;;;;;17.87;7.40;;;;;;;20.03;23.36;99718.16;124998;1102;104319;-79
2022/03/29 11:45:48;;;;;;;14.30;6.97;;;;;;;20.06;22.97;99718.12;125238;1102;104146;-80
2022/03/29 11:48:34;;;;;;;14.83;6.93;;;;;;;20.00;23.32;99707.56;125137;1102;102245;-79
2022/03/29 11:51:37;;;;;;;16.10;6.70;;;;;;;20.01;23.00;99709.33;125288;1102;104322;-80
2022/03/29 11:54:42;;;;;;;18.43;7.03;;;;;;;19.97;22.82;99699.62;125307;1102;104258;-80
2022/03/29 11:57:30;;;;;;;14.67;6.30;;;;;;;19.96;22.95;99700.55;125301;1102;104184;-82
2022/03/29 12:00:33;;;;;;;17.23;6.97;;;;;;;19.85;23.21;99686.49;125303;1102;102634;-80
2022/03/29 12:03:22;;;;;;;16.27;7.20;;;;;;;19.85;22.29;99691.81;125182;1102;102175;-78
2022/03/29 12:06:35;;;;;;;16.30;6.73;;;;;;;19.75;22.86;99691.92;125330;1102;101900;-80
2022/03/29 12:09:24;;;;;;;17.60;7.00;;;;;;;19.69;22.76;99689.34;125212;1102;104242;-82
2022/03/29 12:12:03;;;;;;;17.87;7.13;;;;;;;19.64;23.12;99688.55;125245;1102;104271;-79
2022/03/29 12:14:38;;;;;;;18.90;6.90;;;;;;;19.57;22.26;99690.42;125312;1101;102146;-80
2022/03/29 12:17:13;;;;;;;15.83;7.63;;;;;;;19.51;22.75;99692.27;125326;1102;102237;-80
2022/03/29 12:19:57;;;;;;;17.60;7.17;;;;;;;19.49;22.48;99694.08;125435;1102;104319;-79
2022/03/29 12:22:35;;;;;;;17.43;8.00;;;;;;;19.43;22.98;99697.72;125457;1102;103477;-80
2022/03/29 12:25:27;;;;;;;15.27;7.43;;;;;;;19.40;22.46;99690.65;125422;1103;104207;-81